Time;durP1;ratioP1;P1;durP2;ratioP2;P2;SDS_P1;SDS_P2;PMS_P1;PMS_P2;Temp;Humidity;BMP_temperature;BMP_pressure;BME280_temperature;BME280_humidity;BME280_pressure;Samples;Min_cycle;Max_cycle;Signal;HPM_P1;HPM_P2
2022/12/21 00:01:12;;;;;;;18.23;16.50;;;12.50;91.00;;;15.41;64.69;100855.28;5034162;28;20217;-52
2022/12/21 00:03:39;;;;;;;19.93;17.93;;;12.50;91.00;;;15.45;64.38;100847.78;5052986;28;20197;-52
2022/12/21 00:06:07;;;;;;;18.77;16.83;;;12.50;90.90;;;15.46;64.13;100849.41;5054570;28;20193;-55
2022/12/21 00:08:36;;;;;;;21.30;19.20;;;12.50;90.90;;;15.45;64.03;100853.09;5054362;28;20218;-53
2022/12/21 00:11:03;;;;;;;22.10;19.93;;;12.60;90.80;;;15.43;64.32;100855.06;5051878;28;20206;-55
2022/12/21 00:13:32;;;;;;;22.43;20.23;;;12.50;90.70;;;15.39;64.04;100852.03;5043421;28;20190;-53
2022/12/21 00:16:02;;;;;;;17.47;15.83;;;12.60;90.70;;;15.37;64.36;100851.41;5054610;28;20190;-53
2022/12/21 00:18:31;;;;;;;19.00;17.10;;;12.60;90.70;;;15.40;64.12;100852.84;5053288;28;20194;-53
2022/12/21 00:21:01;;;;;;;19.23;17.43;;;12.60;90.70;;;15.41;64.01;100849.16;5054519;28;20578;-56
2022/12/21 00:23:29;;;;;;;17.97;16.27;;;12.60;90.70;;;15.42;63.85;100845.50;5054409;28;20243;-56
2022/12/21 00:25:58;;;;;;;17.30;15.60;;;12.60;90.60;;;15.45;63.89;100850.44;5054565;28;20189;-54
2022/12/21 00:28:26;;;;;;;18.77;16.87;;;12.60;91.00;;;15.49;63.76;100852.47;5054383;28;20186;-54
2022/12/21 00:30:55;;;;;;;21.33;19.20;;;12.60;90.70;;;15.51;63.73;100849.63;5037312;28;20207;-54
2022/12/21 00:33:22;;;;;;;18.93;17.03;;;12.50;90.70;;;15.52;63.44;100843.31;5034322;28;20201;-55
2022/12/21 00:35:51;;;;;;;17.53;15.83;;;12.50;90.70;;;15.52;63.63;100852.06;5034456;28;20202;-54
2022/12/21 00:38:18;;;;;;;19.60;17.70;;;12.60;90.80;;;15.54;63.69;100849.22;5033957;28;20225;-54
2022/12/21 00:40:45;;;;;;;19.03;17.13;;;12.60;90.80;;;15.52;63.78;100848.59;5034430;28;20241;-53
2022/12/21 00:43:12;;;;;;;19.33;17.53;;;12.60;90.80;;;15.52;63.42;100846.75;5054185;28;20658;-53
2022/12/21 00:45:39;;;;;;;17.23;15.57;;;12.50;90.80;;;15.54;63.81;100855.34;5049081;28;20195;-56
2022/12/21 00:48:08;;;;;;;19.27;17.37;;;12.50;90.80;;;15.55;63.59;100856.13;5038247;28;20278;-55
2022/12/21 00:50:34;;;;;;;19.30;17.27;;;12.60;90.80;;;15.56;63.70;100857.78;5053541;28;20220;-58
2022/12/21 00:53:01;;;;;;;16.07;14.57;;;12.60;90.80;;;15.56;63.72;100865.75;5054075;28;20193;-55
2022/12/21 00:55:28;;;;;;;13.97;12.57;;;12.50;90.70;;;15.55;63.62;100862.25;5054205;28;20216;-54
2022/12/21 00:57:57;;;;;;;12.03;10.77;;;12.50;90.70;;;15.57;63.50;100849.59;5053903;28;20194;-55
2022/12/21 01:00:25;;;;;;;12.87;11.57;;;12.50;90.70;;;15.61;63.25;100849.22;5052711;28;20216;-54
2022/12/21 01:02:52;;;;;;;9.83;8.93;;;12.50;90.70;;;15.64;63.18;100854.94;5052107;28;20197;-57
2022/12/21 01:05:21;;;;;;;10.87;8.60;;;12.60;90.70;;;15.66;63.08;100846.75;5053698;28;20225;-54
2022/12/21 01:07:48;;;;;;;9.47;8.57;;;12.60;90.70;;;15.68;63.13;100850.84;5053652;28;20198;-55
2022/12/21 01:10:15;;;;;;;10.23;8.30;;;12.60;90.70;;;15.69;62.87;100871.03;5053417;28;20247;-56
2022/12/21 01:12:42;;;;;;;11.23;9.13;;;12.60;90.60;;;15.68;62.86;100872.06;5053464;28;20666;-56
2022/12/21 01:15:09;;;;;;;8.47;7.67;;;12.60;90.50;;;15.66;62.80;100879.44;5053415;28;20196;-56
2022/12/21 01:17:36;;;;;;;9.47;8.23;;;12.60;90.40;;;15.65;62.93;100871.66;5049389;28;20651;-54
2022/12/21 01:20:06;;;;;;;8.60;7.73;;;12.50;90.40;;;15.63;62.55;100879.81;5033457;28;20221;-56
2022/12/21 01:22:39;;;;;;;8.13;7.33;;;12.60;90.40;;;15.63;62.79;100882.47;5033644;28;20182;-56
2022/12/21 01:25:07;;;;;;;7.20;6.33;;;12.60;90.40;;;15.64;63.12;100886.78;5033457;28;20204;-54
2022/12/21 01:27:34;;;;;;;7.17;6.40;;;12.60;90.40;;;15.63;62.71;100879.81;5033566;28;20194;-56
2022/12/21 01:30:01;;;;;;;7.70;6.53;;;12.60;90.40;;;15.62;63.12;100870.22;5033223;28;20260;-53
2022/12/21 01:32:28;;;;;;;8.87;7.83;;;12.50;90.30;;;15.59;62.58;100874.09;5033633;28;20198;-55
2022/12/21 01:34:56;;;;;;;8.87;7.00;;;12.50;90.20;;;15.56;62.67;100884.31;5047491;28;20596;-53
2022/12/21 01:37:24;;;;;;;6.77;6.10;;;12.60;90.30;;;15.56;62.76;100886.97;5053537;28;20205;-54
2022/12/21 01:39:52;;;;;;;6.30;5.63;;;12.50;90.20;;;15.56;62.67;100887.78;5052950;28;20213;-54
2022/12/21 01:42:20;;;;;;;8.03;6.60;;;12.50;90.30;;;15.59;62.52;100889.22;5053565;28;20202;-53
2022/12/21 01:45:02;;;;;;;11.37;7.70;;;12.50;90.30;;;15.56;62.82;100886.97;5053303;28;20655;-53
2022/12/21 01:47:40;;;;;;;7.90;7.20;;;12.50;90.30;;;15.57;62.82;100891.22;5053740;28;20312;-53
2022/12/21 01:50:29;;;;;;;8.97;7.43;;;12.50;90.30;;;15.54;62.85;100896.97;5041003;28;20209;-53
2022/12/21 01:53:00;;;;;;;8.27;7.43;;;12.50;90.30;;;15.55;62.67;100903.91;5053474;28;20193;-53
2022/12/21 01:55:30;;;;;;;9.37;8.47;;;12.50;90.30;;;15.56;62.48;100900.22;5053091;28;20562;-53
2022/12/21 01:57:59;;;;;;;11.57;10.47;;;12.50;90.40;;;15.56;62.65;100905.53;5053529;28;20196;-53
2022/12/21 02:00:26;;;;;;;11.03;9.93;;;12.50;90.40;;;15.56;62.87;100905.53;5052317;28;20209;-53
2022/12/21 02:03:00;;;;;;;10.77;9.77;;;12.50;90.40;;;15.56;62.68;100905.53;5057464;28;20291;-52
2022/12/21 02:05:34;;;;;;;11.47;10.30;;;12.50;90.40;;;15.57;62.51;100904.50;5038819;28;20198;-56
2022/12/21 02:08:04;;;;;;;14.67;12.80;;;12.50;90.40;;;15.56;62.67;100900.22;5038077;28;20190;-55
2022/12/21 02:10:33;;;;;;;12.33;11.13;;;12.50;90.40;;;15.56;62.55;100900.22;5038034;28;20293;-54
2022/12/21 02:13:04;;;;;;;12.23;11.10;;;12.50;90.40;;;15.55;62.55;100903.91;5039297;28;20199;-55
2022/12/21 02:15:52;;;;;;;12.80;11.60;;;12.50;90.40;;;15.52;62.86;100905.13;5039653;28;20179;-54
2022/12/21 02:18:40;;;;;;;10.53;9.43;;;12.50;90.40;;;15.52;62.68;100904.31;5036696;28;20273;-54
2022/12/21 02:21:25;;;;;;;10.97;9.97;;;12.50;90.40;;;15.53;62.83;100905.94;5046751;28;20251;-54
2022/12/21 02:24:30;;;;;;;10.90;9.80;;;12.50;90.40;;;15.52;62.68;100905.13;5057437;28;20216;-54
2022/12/21 02:27:23;;;;;;;10.40;9.40;;;12.50;90.40;;;15.54;62.65;100905.75;5056905;28;20658;-55
2022/12/21 02:30:11;;;;;;;10.70;9.63;;;12.50;90.30;;;15.53;62.63;100897.97;5056431;28;20201;-54
2022/12/21 02:33:12;;;;;;;11.10;10.00;;;12.50;90.30;;;15.51;62.61;100898.19;5056761;28;20193;-54
2022/12/21 02:36:00;;;;;;;10.80;9.70;;;12.50;90.30;;;15.51;62.60;100900.03;5055098;28;20304;-54
2022/12/21 02:38:46;;;;;;;11.90;10.70;;;12.50;90.20;;;15.47;62.45;100890.84;5056189;28;20209;-54
2022/12/21 02:41:31;;;;;;;12.03;10.83;;;12.50;90.20;;;15.44;62.40;100892.06;5056619;28;20241;-54
2022/12/21 02:44:15;;;;;;;12.27;10.50;;;12.50;90.20;;;15.40;62.55;100911.22;5056869;28;20232;-56
2022/12/21 02:47:00;;;;;;;12.40;10.87;;;12.50;90.20;;;15.33;62.65;100907.72;5056358;28;20194;-54
2022/12/21 02:49:36;;;;;;;12.43;10.83;;;12.40;90.10;;;15.29;62.81;100912.59;5054109;28;20210;-54
2022/12/21 02:52:13;;;;;;;12.33;11.03;;;12.40;90.20;;;15.24;63.07;100911.56;5036446;28;20197;-53
2022/12/21 02:54:41;;;;;;;12.40;11.10;;;12.40;90.20;;;15.24;63.03;100900.94;5036343;28;20194;-54
2022/12/21 02:57:08;;;;;;;12.97;11.10;;;12.30;90.20;;;15.21;62.85;100904.03;5036345;28;20201;-56
2022/12/21 02:59:41;;;;;;;13.37;10.77;;;12.30;90.20;;;15.22;62.91;100914.41;5036248;28;20218;-55
2022/12/21 03:06:04;;;;;;;13.13;11.33;;;12.30;90.30;;;15.13;62.92;100925.41;5053080;28;20199;-55
2022/12/21 03:08:52;;;;;;;11.70;10.20;;;12.20;90.20;;;15.12;62.99;100929.09;5046174;28;20182;-53
2022/12/21 03:11:22;;;;;;;10.67;9.13;;;12.20;90.20;;;15.12;62.80;100913.19;5055848;28;20190;-55
2022/12/21 03:14:05;;;;;;;10.67;9.53;;;12.20;90.20;;;15.12;62.91;100902.59;5056051;28;20181;-54
2022/12/21 03:16:46;;;;;;;12.23;10.70;;;12.20;90.30;;;15.10;62.75;100894.81;5056286;28;20176;-55
2022/12/21 03:19:24;;;;;;;13.60;10.23;;;12.20;90.20;;;15.06;63.09;100895.41;5055628;28;20209;-53
2022/12/21 03:22:00;;;;;;;12.00;10.53;;;12.20;90.20;;;15.02;63.01;100896.84;5053792;28;20208;-54
2022/12/21 03:24:36;;;;;;;11.27;10.07;;;12.20;90.10;;;14.96;62.66;100897.63;5041775;28;20241;-53
2022/12/21 03:27:13;;;;;;;14.80;11.40;;;12.10;90.10;;;14.92;62.74;100907.81;5035798;28;20186;-55
2022/12/21 03:29:47;;;;;;;12.00;10.57;;;12.10;90.10;;;14.89;62.93;100906.38;5037683;28;20288;-55
2022/12/21 03:32:22;;;;;;;16.97;12.30;;;12.00;90.00;;;14.88;62.81;100903.94;5055542;28;20190;-53
2022/12/21 03:34:53;;;;;;;13.10;11.03;;;12.00;90.10;;;14.85;62.81;100897.19;5055977;28;20603;-54
2022/12/21 03:37:28;;;;;;;14.83;10.80;;;11.90;90.10;;;14.82;62.76;100902.88;5052479;28;20212;-53
2022/12/21 03:40:02;;;;;;;14.23;11.20;;;11.90;90.10;;;14.80;62.77;100899.63;5035363;28;20224;-54
2022/12/21 03:42:36;;;;;;;13.33;11.00;;;11.90;90.10;;;14.77;62.83;100897.34;5036412;28;20284;-54
2022/12/21 03:45:09;;;;;;;13.80;11.53;;;11.90;90.10;;;14.73;62.71;100908.53;5035909;28;20202;-53
2022/12/21 03:47:43;;;;;;;14.87;12.27;;;11.90;90.10;;;14.68;62.78;100916.25;5036540;28;20186;-53
2022/12/21 03:50:18;;;;;;;15.23;12.33;;;11.80;90.10;;;14.61;62.84;100905.66;5055520;28;20213;-53
2022/12/21 03:52:54;;;;;;;14.87;12.20;;;11.80;90.10;;;14.56;62.94;100909.88;5055209;28;20247;-53
2022/12/21 03:55:28;;;;;;;18.80;12.27;;;11.70;90.10;;;14.50;63.15;100908.81;5045801;28;20178;-53
2022/12/21 03:57:57;;;;;;;14.30;12.27;;;11.70;90.10;;;14.45;63.06;100892.72;5050087;28;20288;-53
2022/12/21 04:00:27;;;;;;;15.90;13.37;;;11.60;90.00;;;14.41;63.27;100888.81;5056558;28;20256;-58
2022/12/21 04:03:01;;;;;;;15.47;11.77;;;11.60;90.10;;;14.37;63.29;100887.59;5064391;28;20183;-56
2022/12/21 04:05:38;;;;;;;15.70;10.83;;;11.60;90.10;;;14.34;63.13;100893.25;5064589;28;20182;-57
2022/12/21 04:08:08;;;;;;;15.80;12.93;;;11.60;90.10;;;14.34;63.14;100901.19;5064443;28;20212;-55
2022/12/21 04:10:36;;;;;;;15.70;12.23;;;11.50;90.10;;;14.35;63.06;100899.38;5064233;28;20214;-59
2022/12/21 04:13:02;;;;;;;15.00;12.50;;;11.50;90.20;;;14.33;63.30;100889.00;5060655;28;20194;-56
2022/12/21 04:19:57;;;;;;;16.87;12.63;;;11.40;90.60;;;14.31;63.23;100883.03;5061376;28;20612;-55
2022/12/21 04:21:03;;;;;;;17.57;13.57;;;11.40;90.30;;;14.29;63.37;100879.75;5059352;28;20218;-55
2022/12/21 04:29:03;;;;;;;19.90;13.83;;;11.40;90.40;;;14.31;63.29;100883.03;5040145;28;20228;-55
2022/12/21 04:31:30;;;;;;;22.13;14.63;;;11.40;90.40;;;14.33;63.54;100886.34;5039662;28;20245;-57
2022/12/21 04:33:57;;;;;;;20.07;14.23;;;11.40;90.40;;;14.35;63.59;100884.31;5040932;28;20199;-55
2022/12/21 04:39:11;;;;;;;20.70;14.13;;;11.40;90.50;;;14.37;63.47;100892.88;5061176;28;20724;-56
2022/12/21 04:41:38;;;;;;;22.50;15.00;;;11.40;90.50;;;14.38;63.35;100889.19;5060396;28;20233;-56
2022/12/21 04:44:05;;;;;;;18.80;13.47;;;11.40;90.50;;;14.39;63.29;100890.84;5061732;28;20658;-56
2022/12/21 04:46:32;;;;;;;17.83;14.30;;;11.40;90.40;;;14.36;63.32;100891.22;5059675;28;20524;-56
2022/12/21 04:48:59;;;;;;;20.00;14.00;;;11.40;90.30;;;14.34;62.96;100890.59;5061070;28;20248;-56
2022/12/21 04:51:26;;;;;;;20.30;14.30;;;11.40;90.30;;;14.30;63.28;100875.28;5061157;28;20271;-56
2022/12/21 04:53:53;;;;;;;17.17;12.73;;;11.40;90.20;;;14.29;63.21;100878.97;5062899;28;20198;-56
2022/12/21 04:56:21;;;;;;;20.17;13.60;;;11.40;90.20;;;14.28;62.86;100883.44;5061508;28;20197;-57
2022/12/21 04:58:48;;;;;;;23.50;15.43;;;11.40;90.20;;;14.27;63.27;100876.50;5059437;28;20221;-56
2022/12/21 05:01:18;;;;;;;16.13;12.73;;;11.30;90.10;;;14.28;63.13;100872.84;5060764;28;20225;-54
2022/12/21 05:03:45;;;;;;;22.03;13.87;;;11.30;90.20;;;14.28;62.98;100875.50;5044586;28;20387;-56
2022/12/21 05:06:15;;;;;;;20.27;14.67;;;11.30;90.20;;;14.29;63.10;100874.47;5061248;28;20198;-55
2022/12/21 05:08:43;;;;;;;19.00;13.93;;;11.30;90.20;;;14.27;63.15;100882.59;5049235;28;20225;-56
2022/12/21 05:11:12;;;;;;;20.50;13.97;;;11.30;90.20;;;14.27;62.90;100865.91;5038209;28;20250;-57
2022/12/21 05:13:42;;;;;;;20.53;15.27;;;11.30;90.20;;;14.27;62.93;100865.91;5037814;28;20210;-54
2022/12/21 05:16:14;;;;;;;18.50;12.30;;;11.30;90.20;;;14.27;62.80;100876.50;5044587;28;20191;-55
2022/12/21 05:18:41;;;;;;;17.90;12.83;;;11.30;90.20;;;14.27;62.98;100881.78;5059122;28;20221;-55
2022/12/21 05:21:08;;;;;;;19.33;14.13;;;11.30;90.20;;;14.25;62.79;100875.88;5059781;28;20189;-54
2022/12/21 05:23:36;;;;;;;17.77;13.57;;;11.30;90.10;;;14.20;62.80;100889.69;5063927;28;20241;-56
2022/12/21 05:26:05;;;;;;;22.33;15.20;;;11.30;90.00;;;14.15;62.58;100891.28;5063941;28;20400;-56
2022/12/21 05:28:42;;;;;;;21.27;14.43;;;11.30;89.90;;;14.13;62.82;100885.38;5060160;28;20209;-55
2022/12/21 05:31:10;;;;;;;19.37;14.73;;;11.20;89.70;;;14.10;62.93;100886.56;5060954;28;20200;-57
2022/12/21 05:33:37;;;;;;;17.33;12.87;;;11.20;89.70;;;14.12;62.76;100887.19;5059609;28;20189;-56
2022/12/21 05:36:08;;;;;;;19.70;13.03;;;11.20;89.80;;;14.11;62.74;100887.38;5058586;28;20220;-55
2022/12/21 05:38:36;;;;;;;14.80;10.07;;;11.20;89.80;;;14.12;62.83;100894.34;5059541;28;20217;-56
2022/12/21 05:41:03;;;;;;;18.73;13.40;;;11.20;90.00;;;14.13;62.64;100880.88;5059450;28;20196;-57
2022/12/21 05:43:31;;;;;;;18.77;13.37;;;11.20;90.00;;;14.11;62.65;100887.38;5059168;28;20193;-56
2022/12/21 05:46:02;;;;;;;21.57;14.83;;;11.10;89.80;;;14.03;62.71;100890.16;5057152;28;20210;-59
2022/12/21 05:48:29;;;;;;;18.57;13.97;;;11.20;89.40;;;13.94;62.97;100876.28;5057751;28;20268;-56
2022/12/21 05:50:57;;;;;;;18.90;13.70;;;11.20;89.40;;;13.89;63.16;100883.97;5059021;28;20197;-56
2022/12/21 05:53:24;;;;;;;16.17;12.27;;;11.10;89.50;;;13.89;63.02;100883.16;5060158;28;20186;-56
2022/12/21 05:55:52;;;;;;;18.43;12.53;;;11.10;89.60;;;13.92;63.18;100869.53;5059907;28;20190;-57
2022/12/21 05:58:20;;;;;;;17.40;13.10;;;11.10;89.90;;;13.94;63.16;100873.63;5058446;28;20644;-56
2022/12/21 06:00:46;;;;;;;20.70;14.00;;;11.10;90.00;;;13.97;63.12;100867.13;5057732;28;20368;-55
2022/12/21 06:03:15;;;;;;;22.63;15.03;;;11.10;90.00;;;14.00;63.04;100856.19;5058373;28;20220;-56
2022/12/21 06:05:42;;;;;;;22.40;15.97;;;11.10;90.10;;;14.00;63.07;100856.19;5058470;28;20200;-55
2022/12/21 06:08:09;;;;;;;22.73;15.10;;;11.10;90.00;;;13.97;62.88;100853.91;5059056;28;20206;-57
2022/12/21 06:10:37;;;;;;;22.17;15.90;;;11.10;90.00;;;13.94;63.08;100849.81;5056719;28;20453;-58
2022/12/21 06:13:05;;;;;;;19.83;14.27;;;11.10;89.90;;;13.95;63.63;100866.53;5056145;28;20204;-55
2022/12/21 06:15:33;;;;;;;19.57;13.77;;;11.10;90.00;;;13.96;63.36;100879.53;5055544;28;20272;-58
2022/12/21 06:18:00;;;;;;;21.17;15.10;;;11.00;90.00;;;13.99;63.26;100879.16;5055512;28;20197;-57
2022/12/21 06:20:32;;;;;;;21.90;14.87;;;11.10;90.10;;;14.02;63.26;100880.63;5055930;28;20210;-57
2022/12/21 06:22:59;;;;;;;24.53;18.00;;;11.00;90.10;;;14.03;62.83;100884.88;5057161;28;20238;-59
2022/12/21 06:25:26;;;;;;;21.80;15.63;;;11.10;90.00;;;14.00;63.04;100885.28;5044616;28;20278;-56
2022/12/21 06:27:53;;;;;;;22.73;14.07;;;11.10;90.00;;;14.00;63.28;100890.59;5036928;28;20202;-57
2022/12/21 06:30:20;;;;;;;23.20;15.50;;;11.10;90.00;;;14.02;63.29;100889.38;5037256;28;20215;-56
2022/12/21 06:32:47;;;;;;;22.37;15.23;;;11.10;90.10;;;14.04;63.19;100891.81;5037899;28;20188;-58
2022/12/21 06:35:14;;;;;;;20.40;14.10;;;11.10;90.10;;;14.06;63.12;100895.09;5036967;28;20209;-57
2022/12/21 06:37:43;;;;;;;22.07;16.03;;;11.10;90.10;;;14.07;63.06;100892.22;5036999;28;20199;-57
2022/12/21 06:40:10;;;;;;;22.20;15.90;;;11.10;90.10;;;14.08;63.19;100890.41;5055913;28;20214;-59
2022/12/21 06:42:37;;;;;;;20.83;15.43;;;11.10;90.20;;;14.08;63.00;100891.25;5056084;28;20217;-57
2022/12/21 06:45:06;;;;;;;23.60;17.30;;;11.10;90.20;;;14.08;62.96;100885.13;5050609;28;20269;-56
2022/12/21 06:47:33;;;;;;;28.23;17.87;;;11.10;90.00;;;14.04;62.92;100870.66;5038066;28;20662;-56
2022/12/21 06:50:00;;;;;;;26.30;17.83;;;11.20;90.00;;;13.97;63.22;100875.09;5037522;28;20218;-57
2022/12/21 06:52:27;;;;;;;25.43;18.37;;;11.10;89.80;;;13.92;63.44;100898.66;5039419;28;20194;-57
2022/12/21 06:54:55;;;;;;;21.27;15.40;;;11.20;90.00;;;13.90;63.37;100900.69;5050260;28;20190;-57
2022/12/21 06:57:22;;;;;;;25.37;15.37;;;11.10;89.90;;;13.91;63.25;100897.00;5049850;28;20195;-53
2022/12/21 06:59:49;;;;;;;22.07;15.23;;;11.10;90.00;;;13.94;63.21;100907.22;5046076;28;20225;-57
2022/12/21 07:02:16;;;;;;;21.73;15.77;;;11.10;90.10;;;13.96;63.33;100899.91;5048472;28;20210;-56
2022/12/21 07:04:43;;;;;;;25.13;16.97;;;11.10;90.10;;;13.96;63.34;100906.00;5058693;28;20193;-57
2022/12/21 07:07:10;;;;;;;27.10;16.30;;;11.10;90.10;;;13.97;63.13;100901.53;5059282;28;20194;-56
2022/12/21 07:09:37;;;;;;;26.10;18.07;;;11.10;90.10;;;13.94;63.29;100901.91;5056289;28;20209;-60
2022/12/21 07:12:05;;;;;;;28.83;20.10;;;11.10;90.00;;;13.87;63.59;100895.75;5056413;28;20189;-54
2022/12/21 07:14:32;;;;;;;28.50;18.90;;;11.10;90.00;;;13.77;63.93;100905.84;5057110;28;20198;-55
2022/12/21 07:17:00;;;;;;;25.77;18.50;;;11.10;90.00;;;13.74;64.06;100900.97;5056374;28;20198;-56
2022/12/21 07:19:29;;;;;;;32.33;19.90;;;11.10;90.00;;;13.75;63.96;100902.56;5056435;28;20220;-54
2022/12/21 07:21:56;;;;;;;22.73;16.80;;;11.10;90.10;;;13.81;63.99;100907.13;5056997;28;20218;-54
2022/12/21 07:24:23;;;;;;;25.63;16.97;;;11.00;90.10;;;13.85;63.70;100901.25;5056229;28;20194;-55
2022/12/21 07:26:50;;;;;;;23.00;15.87;;;11.00;90.20;;;13.90;63.50;100905.97;5055224;28;20607;-54
2022/12/21 07:29:18;;;;;;;24.83;17.07;;;11.00;90.20;;;13.93;63.39;100905.59;5054400;28;20290;-56
2022/12/21 07:31:46;;;;;;;25.73;17.00;;;11.00;90.20;;;13.94;63.28;100897.44;5058974;28;20653;-56
2022/12/21 07:34:13;;;;;;;25.03;17.80;;;11.10;90.20;;;13.93;63.35;100895.00;5058300;28;20194;-53
2022/12/21 07:36:41;;;;;;;24.33;16.93;;;11.00;90.20;;;13.88;63.27;100892.13;5055609;28;20202;-56
2022/12/21 07:39:09;;;;;;;31.17;19.80;;;11.10;90.10;;;13.83;63.73;100903.28;5055933;28;20280;-53
2022/12/21 07:41:36;;;;;;;26.73;17.80;;;11.10;90.00;;;13.78;63.68;100896.91;5055219;28;20197;-56
2022/12/21 07:44:03;;;;;;;31.07;19.47;;;11.10;90.00;;;13.73;63.86;100904.59;5039068;28;20187;-54
2022/12/21 07:46:31;;;;;;;46.83;19.73;;;11.00;90.00;;;13.65;63.95;100918.78;5033370;28;20206;-55
2022/12/21 07:48:58;;;;;;;25.00;16.97;;;11.00;90.00;;;13.64;63.91;100911.03;5046562;28;20272;-55
2022/12/21 07:51:26;;;;;;;28.23;19.37;;;11.00;90.00;;;13.60;64.03;100912.44;5054656;28;20190;-54
2022/12/21 07:53:54;;;;;;;28.00;19.63;;;10.90;89.90;;;13.60;64.19;100912.44;5055071;28;20218;-55
2022/12/21 07:56:21;;;;;;;22.10;15.13;;;10.90;90.00;;;13.63;64.22;100920.78;5050205;28;20201;-54
2022/12/21 07:58:48;;;;;;;22.23;14.77;;;10.90;90.10;;;13.70;63.92;100920.84;5035700;28;20247;-54
2022/12/21 08:01:17;;;;;;;27.83;18.03;;;10.90;90.20;;;13.76;63.80;100926.22;5034099;28;20194;-52
2022/12/21 08:03:47;;;;;;;38.80;17.67;;;10.90;90.20;;;13.81;63.89;100923.00;5053812;28;20350;-57
2022/12/21 08:06:15;;;;;;;26.30;18.13;;;10.90;90.20;;;13.85;63.48;100927.72;5054285;28;20197;-57
2022/12/21 08:08:42;;;;;;;27.70;18.77;;;10.90;90.20;;;13.83;63.46;100927.09;5054161;28;20238;-54
2022/12/21 08:11:12;;;;;;;26.97;18.07;;;10.90;90.20;;;13.86;63.28;100928.53;5041346;28;20601;-55
2022/12/21 08:13:40;;;;;;;30.60;17.17;;;10.90;90.10;;;13.87;63.32;100924.88;5034653;28;20193;-56
2022/12/21 08:16:12;;;;;;;34.60;22.70;;;10.90;90.10;;;13.82;62.74;100924.63;5034766;28;20309;-59
2022/12/21 08:18:39;;;;;;;31.50;20.17;;;10.90;90.00;;;13.69;63.21;100920.06;5033840;28;20240;-56
2022/12/21 08:21:08;;;;;;;22.73;17.03;;;10.90;89.70;;;13.59;63.39;100924.84;5034975;28;20190;-54
2022/12/21 08:23:35;;;;;;;27.80;19.07;;;10.90;89.60;;;13.57;64.25;100921.56;5034932;28;20210;-56
2022/12/21 08:26:05;;;;;;;28.13;19.33;;;10.90;89.80;;;13.55;63.76;100924.38;5034162;28;20190;-56
2022/12/21 08:28:33;;;;;;;41.57;18.90;;;10.80;89.80;;;13.51;63.74;100928.41;5033851;28;20190;-55
2022/12/21 08:31:01;;;;;;;29.27;17.90;;;10.80;89.90;;;13.48;63.59;100920.84;5034103;28;20217;-56
2022/12/21 08:33:28;;;;;;;29.33;17.47;;;10.80;89.90;;;13.46;63.94;100920.22;5034067;28;20186;-59
2022/12/21 08:35:55;;;;;;;27.70;19.67;;;10.80;89.90;;;13.41;64.04;100917.31;5035017;28;20644;-55
2022/12/21 08:38:23;;;;;;;35.70;18.37;;;10.70;90.00;;;13.40;64.25;100921.00;5034260;28;20202;-54
2022/12/21 08:41:11;;;;;;;28.90;18.30;;;10.70;90.00;;;13.44;64.08;100916.13;5033963;28;20266;-54
2022/12/21 08:43:38;;;;;;;28.23;19.27;;;10.70;90.10;;;13.43;64.08;100920.59;5033814;28;20671;-53
2022/12/21 08:46:08;;;;;;;27.70;19.07;;;10.70;90.10;;;13.42;64.11;100913.69;5034171;28;20591;-55
2022/12/21 08:48:36;;;;;;;25.63;17.50;;;10.70;90.10;;;13.43;64.17;100904.72;5042438;28;20260;-56
2022/12/21 08:51:06;;;;;;;28.07;17.73;;;10.70;90.10;;;13.49;64.24;100908.47;5054249;28;20247;-54
2022/12/21 08:53:36;;;;;;;32.40;19.30;;;10.70;90.20;;;13.53;64.09;100905.25;5034094;28;20186;-56
2022/12/21 08:56:04;;;;;;;26.20;17.40;;;10.70;90.20;;;13.58;63.85;100907.31;5033970;28;20214;-55
2022/12/21 08:58:32;;;;;;;30.13;18.67;;;10.70;90.20;;;13.58;63.76;100916.06;5035512;28;20204;-57
2022/12/21 09:01:00;;;;;;;27.60;17.70;;;10.70;90.10;;;13.56;63.70;100917.28;5042518;28;20210;-56
2022/12/21 09:03:28;;;;;;;21.40;16.03;;;10.70;90.00;;;13.54;64.01;100922.75;5047088;28;20214;-53
2022/12/21 09:05:58;;;;;;;23.70;16.43;;;10.70;90.00;;;13.59;63.88;100924.84;5044866;28;20189;-54
2022/12/21 09:08:36;;;;;;;26.57;17.73;;;10.70;90.20;;;13.70;63.83;100921.66;5044137;28;20232;-55
2022/12/21 09:11:07;;;;;;;27.00;18.80;;;10.70;90.30;;;13.74;63.27;100925.56;5043262;28;20205;-54
2022/12/21 09:13:35;;;;;;;27.90;18.57;;;10.80;90.20;;;13.75;63.40;100918.44;5045901;28;20269;-56
2022/12/21 09:16:10;;;;;;;25.17;17.70;;;10.80;90.10;;;13.71;63.42;100922.50;5043826;28;20270;-56
2022/12/21 09:18:37;;;;;;;24.13;17.53;;;10.80;89.90;;;13.68;63.47;100912.28;5049794;28;20242;-54
2022/12/21 09:21:05;;;;;;;25.50;16.93;;;10.90;90.00;;;13.69;63.46;100911.28;5047706;28;20638;-56
2022/12/21 09:23:32;;;;;;;25.73;17.90;;;10.90;90.00;;;13.69;63.78;100908.66;5042293;28;20214;-56
2022/12/21 09:26:02;;;;;;;27.50;18.17;;;10.90;90.00;;;13.66;63.61;100904.56;5044177;28;20258;-55
2022/12/21 09:28:30;;;;;;;27.80;19.57;;;10.90;89.90;;;13.66;63.62;100903.72;5047159;28;20225;-56
2022/12/21 09:31:08;;;;;;;26.93;19.00;;;10.90;90.00;;;13.63;63.52;100901.47;5044480;28;20680;-53
2022/12/21 09:33:36;;;;;;;24.23;17.37;;;10.90;90.00;;;13.66;63.94;100906.38;5037571;28;20189;-56
2022/12/21 09:36:04;;;;;;;24.93;17.23;;;10.90;90.00;;;13.69;63.61;100909.47;5041598;28;20194;-55
2022/12/21 09:38:32;;;;;;;26.83;18.63;;;10.90;90.00;;;13.76;63.71;100905.06;5043446;28;20228;-54
2022/12/21 09:41:46;;;;;;;27.27;18.47;;;10.90;90.10;;;13.80;63.43;100913.41;5041864;28;20221;-57
2022/12/21 09:44:50;;;;;;;21.97;15.77;;;11.00;90.20;;;13.78;63.56;100905.69;5021607;28;20226;-57
2022/12/21 09:47:29;;;;;;;24.37;17.17;;;11.00;90.00;;;13.82;63.42;100914.03;5048358;28;20204;-57
2022/12/21 09:50:01;;;;;;;21.93;15.17;;;11.00;90.00;;;13.91;63.34;100912.88;5050194;28;20277;-55
2022/12/21 09:52:36;;;;;;;28.57;19.00;;;11.00;90.00;;;14.01;63.11;100916.00;5049049;28;20182;-55
2022/12/21 09:55:10;;;;;;;27.40;17.60;;;11.00;90.00;;;14.09;62.92;100927.28;5045253;28;20610;-55
2022/12/21 09:57:39;;;;;;;28.77;18.93;;;11.10;90.00;;;14.14;62.81;100926.72;5042843;28;20189;-57
2022/12/21 10:00:17;;;;;;;32.87;20.40;;;11.10;90.00;;;14.16;62.55;100911.44;5040085;28;20925;-56
2022/12/21 10:03:14;;;;;;;35.03;22.47;;;11.10;90.00;;;14.16;62.53;100917.56;5042185;28;20206;-57
2022/12/21 10:06:18;;;;;;;30.20;20.63;;;11.20;90.00;;;14.17;62.79;100923.66;5056444;28;20485;-57
2022/12/21 10:09:20;;;;;;;29.83;19.47;;;11.20;90.00;;;14.20;62.93;100931.22;5051998;28;20218;-58
2022/12/21 10:12:02;;;;;;;26.97;17.73;;;11.20;90.00;;;14.24;62.53;100908.63;5042979;28;20204;-56
2022/12/21 10:14:52;;;;;;;29.13;18.83;;;11.20;90.00;;;14.28;62.49;100904.63;5047323;28;20184;-56
2022/12/21 10:17:44;;;;;;;29.17;19.10;;;11.20;90.00;;;14.35;62.53;100916.09;5040588;28;20209;-54
2022/12/21 10:20:30;;;;;;;28.13;18.80;;;11.30;90.40;;;14.42;62.53;100902.88;5040932;28;20214;-56
2022/12/21 10:23:03;;;;;;;29.73;19.33;;;11.30;90.10;;;14.50;62.63;100892.94;5044900;28;20670;-54
2022/12/21 10:25:40;;;;;;;31.50;21.00;;;11.40;90.10;;;14.54;62.27;100893.38;5048610;28;20197;-55
2022/12/21 10:28:26;;;;;;;27.67;18.83;;;11.40;90.00;;;14.55;62.15;100877.28;5050804;28;20193;-53
2022/12/21 10:31:03;;;;;;;26.93;18.83;;;11.40;89.60;;;14.58;61.91;100890.13;5049278;28;20201;-55
2022/12/21 10:33:33;;;;;;;25.40;17.50;;;11.50;89.60;;;14.59;62.24;100878.53;5054590;28;20193;-54